sensor_id;sensor_type;location;lat;lon;timestamp;pressure;altitude;pressure_sealevel;temperature;humidity
68107;BME280;54892;47.488;19.026;2023-06-01T00:01:14;100173.00;;;18.17;61.80
68107;BME280;54892;47.488;19.026;2023-06-01T00:04:17;100178.16;;;18.13;61.63
68107;BME280;54892;47.488;19.026;2023-06-01T00:07:21;100172.44;;;18.06;61.25
68107;BME280;54892;47.488;19.026;2023-06-01T00:10:26;100172.84;;;17.99;61.21
68107;BME280;54892;47.488;19.026;2023-06-01T00:13:30;100173.41;;;17.96;60.90
68107;BME280;54892;47.488;19.026;2023-06-01T00:16:35;100174.91;;;17.88;60.90
68107;BME280;54892;47.488;19.026;2023-06-01T00:19:38;100175.81;;;17.84;61.15
68107;BME280;54892;47.488;19.026;2023-06-01T00:22:42;100166.53;;;17.81;61.07
68107;BME280;54892;47.488;19.026;2023-06-01T00:25:45;100168.50;;;17.75;61.06
68107;BME280;54892;47.488;19.026;2023-06-01T00:28:49;100171.28;;;17.70;61.20
68107;BME280;54892;47.488;19.026;2023-06-01T00:31:53;100170.31;;;17.66;61.35
68107;BME280;54892;47.488;19.026;2023-06-01T00:34:57;100161.78;;;17.64;61.41
68107;BME280;54892;47.488;19.026;2023-06-01T00:38:00;100156.94;;;17.66;61.84
68107;BME280;54892;47.488;19.026;2023-06-01T00:41:03;100159.44;;;17.62;61.61
68107;BME280;54892;47.488;19.026;2023-06-01T00:44:06;100161.78;;;17.64;62.04
68107;BME280;54892;47.488;19.026;2023-06-01T00:47:11;100163.78;;;17.58;62.11
68107;BME280;54892;47.488;19.026;2023-06-01T00:50:15;100164.09;;;17.57;62.41
68107;BME280;54892;47.488;19.026;2023-06-01T00:53:19;100171.00;;;17.58;62.03
68107;BME280;54892;47.488;19.026;2023-06-01T00:56:23;100173.69;;;17.58;61.96
68107;BME280;54892;47.488;19.026;2023-06-01T00:59:26;100169.22;;;17.53;62.02
68107;BME280;54892;47.488;19.026;2023-06-01T01:02:31;100160.62;;;17.42;62.25
68107;BME280;54892;47.488;19.026;2023-06-01T01:05:37;100153.91;;;17.31;62.25
68107;BME280;54892;47.488;19.026;2023-06-01T01:08:43;100152.94;;;17.27;61.98
68107;BME280;54892;47.488;19.026;2023-06-01T01:11:52;100158.66;;;17.20;62.18
68107;BME280;54892;47.488;19.026;2023-06-01T01:14:59;100148.19;;;17.24;62.21
68107;BME280;54892;47.488;19.026;2023-06-01T01:18:10;100145.22;;;17.25;62.11
68107;BME280;54892;47.488;19.026;2023-06-01T01:21:15;100147.69;;;17.35;62.21
68107;BME280;54892;47.488;19.026;2023-06-01T01:24:35;100149.66;;;17.30;61.82
68107;BME280;54892;47.488;19.026;2023-06-01T01:27:55;100147.28;;;17.28;62.41
68107;BME280;54892;47.488;19.026;2023-06-01T01:31:04;100146.28;;;17.24;61.93
68107;BME280;54892;47.488;19.026;2023-06-01T01:34:09;100144.03;;;17.17;61.76
68107;BME280;54892;47.488;19.026;2023-06-01T01:37:13;100154.38;;;17.05;62.20
68107;BME280;54892;47.488;19.026;2023-06-01T01:40:16;100145.56;;;16.90;62.64
68107;BME280;54892;47.488;19.026;2023-06-01T01:43:20;100149.37;;;16.84;62.87
68107;BME280;54892;47.488;19.026;2023-06-01T01:46:26;100143.53;;;16.68;63.55
68107;BME280;54892;47.488;19.026;2023-06-01T01:49:34;100140.28;;;16.71;63.38
68107;BME280;54892;47.488;19.026;2023-06-01T01:52:42;100141.00;;;16.77;63.38
68107;BME280;54892;47.488;19.026;2023-06-01T01:55:47;100149.88;;;16.72;63.45
68107;BME280;54892;47.488;19.026;2023-06-01T01:58:53;100144.72;;;16.76;63.48
68107;BME280;54892;47.488;19.026;2023-06-01T02:01:58;100144.91;;;16.66;63.48
68107;BME280;54892;47.488;19.026;2023-06-01T02:05:02;100141.94;;;16.67;63.36
68107;BME280;54892;47.488;19.026;2023-06-01T02:08:06;100144.56;;;16.53;63.47
68107;BME280;54892;47.488;19.026;2023-06-01T02:11:09;100146.25;;;16.49;63.42
68107;BME280;54892;47.488;19.026;2023-06-01T02:14:14;100145.81;;;16.42;63.94
68107;BME280;54892;47.488;19.026;2023-06-01T02:17:18;100139.28;;;16.34;64.39
68107;BME280;54892;47.488;19.026;2023-06-01T02:20:23;100145.41;;;16.35;64.59
68107;BME280;54892;47.488;19.026;2023-06-01T02:23:26;100145.31;;;16.40;64.38
68107;BME280;54892;47.488;19.026;2023-06-01T02:26:30;100132.78;;;16.40;64.47
68107;BME280;54892;47.488;19.026;2023-06-01T02:29:34;100125.31;;;16.42;64.22
68107;BME280;54892;47.488;19.026;2023-06-01T02:32:38;100128.44;;;16.44;64.08
68107;BME280;54892;47.488;19.026;2023-06-01T02:35:42;100123.50;;;16.38;63.99
68107;BME280;54892;47.488;19.026;2023-06-01T02:38:45;100118.91;;;16.24;64.48
68107;BME280;54892;47.488;19.026;2023-06-01T02:41:49;100118.50;;;16.17;64.84
68107;BME280;54892;47.488;19.026;2023-06-01T02:44:52;100120.09;;;16.18;65.21
68107;BME280;54892;47.488;19.026;2023-06-01T02:47:57;100113.38;;;16.21;65.00
68107;BME280;54892;47.488;19.026;2023-06-01T02:51:00;100118.19;;;16.19;65.00
68107;BME280;54892;47.488;19.026;2023-06-01T02:54:03;100116.41;;;16.14;65.15
68107;BME280;54892;47.488;19.026;2023-06-01T02:57:07;100114.97;;;16.03;65.35
68107;BME280;54892;47.488;19.026;2023-06-01T03:00:11;100113.25;;;16.12;65.13
68107;BME280;54892;47.488;19.026;2023-06-01T03:03:20;100114.87;;;16.08;65.27
68107;BME280;54892;47.488;19.026;2023-06-01T03:06:23;100117.91;;;16.20;64.48
68107;BME280;54892;47.488;19.026;2023-06-01T03:09:27;100121.94;;;16.18;64.12
68107;BME280;54892;47.488;19.026;2023-06-01T03:12:30;100117.03;;;16.06;64.05
68107;BME280;54892;47.488;19.026;2023-06-01T03:15:33;100124.47;;;16.09;64.03
68107;BME280;54892;47.488;19.026;2023-06-01T03:18:40;100125.78;;;16.11;63.84
68107;BME280;54892;47.488;19.026;2023-06-01T03:21:44;100119.72;;;16.06;63.93
68107;BME280;54892;47.488;19.026;2023-06-01T03:24:48;100124.50;;;15.84;64.18
68107;BME280;54892;47.488;19.026;2023-06-01T03:27:52;100120.94;;;15.94;64.28
68107;BME280;54892;47.488;19.026;2023-06-01T03:30:55;100121.97;;;15.98;64.72
68107;BME280;54892;47.488;19.026;2023-06-01T03:34:00;100114.87;;;16.08;63.81
68107;BME280;54892;47.488;19.026;2023-06-01T03:37:04;100122.06;;;16.26;62.98
68107;BME280;54892;47.488;19.026;2023-06-01T03:40:08;100114.09;;;16.26;62.88
68107;BME280;54892;47.488;19.026;2023-06-01T03:43:13;100126.03;;;16.29;62.76
68107;BME280;54892;47.488;19.026;2023-06-01T03:46:17;100122.28;;;16.30;62.60
68107;BME280;54892;47.488;19.026;2023-06-01T03:49:21;100122.06;;;16.26;62.81
68107;BME280;54892;47.488;19.026;2023-06-01T03:52:25;100108.88;;;16.35;62.92
68107;BME280;54892;47.488;19.026;2023-06-01T03:55:29;100114.72;;;16.37;62.94
68107;BME280;54892;47.488;19.026;2023-06-01T03:58:32;100114.00;;;16.32;63.59
68107;BME280;54892;47.488;19.026;2023-06-01T04:01:36;100115.19;;;16.58;62.90
68107;BME280;54892;47.488;19.026;2023-06-01T04:04:43;100118.81;;;17.10;61.08
68107;BME280;54892;47.488;19.026;2023-06-01T04:07:49;100120.22;;;17.21;60.72
68107;BME280;54892;47.488;19.026;2023-06-01T04:10:52;100116.47;;;17.08;61.07
68107;BME280;54892;47.488;19.026;2023-06-01T04:13:56;100111.19;;;16.89;61.69
68107;BME280;54892;47.488;19.026;2023-06-01T04:16:59;100118.87;;;16.90;61.75
68107;BME280;54892;47.488;19.026;2023-06-01T04:20:06;100114.87;;;17.07;61.35
68107;BME280;54892;47.488;19.026;2023-06-01T04:23:11;100119.13;;;17.08;60.80
68107;BME280;54892;47.488;19.026;2023-06-01T04:26:14;100124.06;;;17.15;61.05
68107;BME280;54892;47.488;19.026;2023-06-01T04:29:19;100124.06;;;17.01;61.55
68107;BME280;54892;47.488;19.026;2023-06-01T04:32:23;100122.47;;;17.00;61.56
68107;BME280;54892;47.488;19.026;2023-06-01T04:35:28;100121.69;;;17.13;61.69
68107;BME280;54892;47.488;19.026;2023-06-01T04:38:32;100124.87;;;17.29;60.83
68107;BME280;54892;47.488;19.026;2023-06-01T04:41:37;100129.03;;;17.35;59.84
68107;BME280;54892;47.488;19.026;2023-06-01T04:44:40;100124.56;;;17.45;58.35
68107;BME280;54892;47.488;19.026;2023-06-01T04:47:43;100130.47;;;17.56;58.28
68107;BME280;54892;47.488;19.026;2023-06-01T04:50:49;100124.59;;;17.68;57.89
68107;BME280;54892;47.488;19.026;2023-06-01T04:53:53;100125.19;;;17.78;58.28
68107;BME280;54892;47.488;19.026;2023-06-01T04:56:57;100125.75;;;17.89;57.82
68107;BME280;54892;47.488;19.026;2023-06-01T05:00:00;100136.78;;;18.10;57.61
68107;BME280;54892;47.488;19.026;2023-06-01T05:03:06;100123.69;;;18.23;57.72
68107;BME280;54892;47.488;19.026;2023-06-01T05:06:11;100129.03;;;18.46;56.32
68107;BME280;54892;47.488;19.026;2023-06-01T05:09:15;100137.00;;;18.91;55.31
68107;BME280;54892;47.488;19.026;2023-06-01T05:12:19;100136.19;;;19.22;53.58
68107;BME280;54892;47.488;19.026;2023-06-01T05:15:22;100134.81;;;18.93;52.58
68107;BME280;54892;47.488;19.026;2023-06-01T05:18:26;100140.28;;;18.88;53.64
68107;BME280;54892;47.488;19.026;2023-06-01T05:21:31;100136.91;;;18.96;53.84
68107;BME280;54892;47.488;19.026;2023-06-01T05:24:34;100137.22;;;19.04;53.95
68107;BME280;54892;47.488;19.026;2023-06-01T05:27:38;100141.84;;;19.12;54.35
68107;BME280;54892;47.488;19.026;2023-06-01T05:30:42;100140.34;;;19.37;54.20
68107;BME280;54892;47.488;19.026;2023-06-01T05:33:45;100133.62;;;19.57;53.46
68107;BME280;54892;47.488;19.026;2023-06-01T05:36:49;100144.16;;;19.54;54.61
68107;BME280;54892;47.488;19.026;2023-06-01T05:39:53;100137.53;;;19.51;54.23
68107;BME280;54892;47.488;19.026;2023-06-01T05:42:56;100134.09;;;19.51;54.81
68107;BME280;54892;47.488;19.026;2023-06-01T05:45:59;100139.13;;;19.52;53.96
68107;BME280;54892;47.488;19.026;2023-06-01T05:49:03;100133.00;;;19.60;53.40
68107;BME280;54892;47.488;19.026;2023-06-01T05:52:08;100140.72;;;19.62;52.72
68107;BME280;54892;47.488;19.026;2023-06-01T05:55:12;100129.06;;;19.67;52.13
68107;BME280;54892;47.488;19.026;2023-06-01T05:58:15;100123.06;;;19.70;49.86
68107;BME280;54892;47.488;19.026;2023-06-01T06:01:20;100130.66;;;19.85;50.89
68107;BME280;54892;47.488;19.026;2023-06-01T06:04:24;100129.88;;;19.93;51.55
68107;BME280;54892;47.488;19.026;2023-06-01T06:07:29;100131.47;;;20.03;51.95
68107;BME280;54892;47.488;19.026;2023-06-01T06:10:32;100133.03;;;20.22;49.43
68107;BME280;54892;47.488;19.026;2023-06-01T06:13:36;100140.94;;;20.27;48.50
68107;BME280;54892;47.488;19.026;2023-06-01T06:16:39;100145.00;;;20.33;46.43
68107;BME280;54892;47.488;19.026;2023-06-01T06:19:42;100138.38;;;20.48;46.93
68107;BME280;54892;47.488;19.026;2023-06-01T06:22:49;100138.22;;;20.53;44.75
68107;BME280;54892;47.488;19.026;2023-06-01T06:25:52;100134.53;;;20.67;44.38
68107;BME280;54892;47.488;19.026;2023-06-01T06:28:56;100136.28;;;20.63;45.77
68107;BME280;54892;47.488;19.026;2023-06-01T06:32:00;100134.53;;;20.84;44.26
68107;BME280;54892;47.488;19.026;2023-06-01T06:35:04;100139.72;;;20.72;43.64
68107;BME280;54892;47.488;19.026;2023-06-01T06:38:11;100132.63;;;20.85;43.88
68107;BME280;54892;47.488;19.026;2023-06-01T06:41:14;100134.34;;;20.90;44.35
68107;BME280;54892;47.488;19.026;2023-06-01T06:44:18;100124.87;;;20.92;44.90
68107;BME280;54892;47.488;19.026;2023-06-01T06:47:21;100130.34;;;21.05;42.96
68107;BME280;54892;47.488;19.026;2023-06-01T06:50:24;100133.62;;;21.10;43.98
68107;BME280;54892;47.488;19.026;2023-06-01T06:53:29;100136.19;;;21.37;41.50
68107;BME280;54892;47.488;19.026;2023-06-01T06:56:32;100131.03;;;21.23;42.83
68107;BME280;54892;47.488;19.026;2023-06-01T06:59:35;100131.22;;;21.48;42.86
68107;BME280;54892;47.488;19.026;2023-06-01T07:02:39;100136.00;;;21.93;41.90
68107;BME280;54892;47.488;19.026;2023-06-01T07:05:44;100131.34;;;22.94;39.40
68107;BME280;54892;47.488;19.026;2023-06-01T07:08:49;100125.88;;;24.67;35.45
68107;BME280;54892;47.488;19.026;2023-06-01T07:11:52;100126.81;;;26.17;32.56
68107;BME280;54892;47.488;19.026;2023-06-01T07:14:56;100132.25;;;27.64;30.53
68107;BME280;54892;47.488;19.026;2023-06-01T07:17:59;100141.16;;;28.74;29.18
68107;BME280;54892;47.488;19.026;2023-06-01T07:21:03;100133.16;;;29.62;27.06
68107;BME280;54892;47.488;19.026;2023-06-01T07:24:07;100129.47;;;30.14;26.15
68107;BME280;54892;47.488;19.026;2023-06-01T07:27:10;100133.34;;;30.13;26.85
68107;BME280;54892;47.488;19.026;2023-06-01T07:30:15;100137.31;;;30.70;26.45
68107;BME280;54892;47.488;19.026;2023-06-01T07:33:18;100142.72;;;31.21;25.49
68107;BME280;54892;47.488;19.026;2023-06-01T07:36:22;100131.00;;;31.38;25.32
68107;BME280;54892;47.488;19.026;2023-06-01T07:39:27;100133.31;;;31.47;25.16
68107;BME280;54892;47.488;19.026;2023-06-01T07:42:31;100138.69;;;31.62;25.58
68107;BME280;54892;47.488;19.026;2023-06-01T07:45:34;100130.81;;;31.89;24.24
68107;BME280;54892;47.488;19.026;2023-06-01T07:48:38;100130.19;;;32.30;23.63
68107;BME280;54892;47.488;19.026;2023-06-01T07:51:42;100127.97;;;32.63;22.89
68107;BME280;54892;47.488;19.026;2023-06-01T07:54:47;100134.22;;;32.08;22.95
68107;BME280;54892;47.488;19.026;2023-06-01T07:57:52;100127.75;;;31.69;23.94
68107;BME280;54892;47.488;19.026;2023-06-01T08:00:55;100131.06;;;32.09;23.74
68107;BME280;54892;47.488;19.026;2023-06-01T08:03:58;100133.97;;;32.44;23.31
68107;BME280;54892;47.488;19.026;2023-06-01T08:07:03;100130.06;;;31.78;24.00
68107;BME280;54892;47.488;19.026;2023-06-01T08:10:10;100122.41;;;31.43;24.29
68107;BME280;54892;47.488;19.026;2023-06-01T08:13:13;100117.72;;;31.51;24.48
68107;BME280;54892;47.488;19.026;2023-06-01T08:16:16;100124.81;;;31.12;24.97
68107;BME280;54892;47.488;19.026;2023-06-01T08:19:19;100116.31;;;30.74;24.76
68107;BME280;54892;47.488;19.026;2023-06-01T08:22:24;100115.84;;;29.19;27.42
68107;BME280;54892;47.488;19.026;2023-06-01T08:25:29;100119.56;;;28.92;27.93
68107;BME280;54892;47.488;19.026;2023-06-01T08:28:32;100123.22;;;28.66;28.06
68107;BME280;54892;47.488;19.026;2023-06-01T08:31:36;100118.00;;;28.46;29.34
68107;BME280;54892;47.488;19.026;2023-06-01T08:34:40;100121.84;;;28.41;29.66
68107;BME280;54892;47.488;19.026;2023-06-01T08:37:43;100111.03;;;27.73;29.89
68107;BME280;54892;47.488;19.026;2023-06-01T08:40:48;100107.06;;;27.06;31.59
68107;BME280;54892;47.488;19.026;2023-06-01T08:43:53;100102.88;;;27.12;31.30
68107;BME280;54892;47.488;19.026;2023-06-01T08:46:58;100114.59;;;27.20;31.62
68107;BME280;54892;47.488;19.026;2023-06-01T08:50:02;100112.97;;;27.15;30.75
68107;BME280;54892;47.488;19.026;2023-06-01T08:53:05;100105.84;;;27.03;31.99
68107;BME280;54892;47.488;19.026;2023-06-01T08:56:10;100104.22;;;26.99;32.27
68107;BME280;54892;47.488;19.026;2023-06-01T08:59:14;100098.72;;;26.68;30.90
68107;BME280;54892;47.488;19.026;2023-06-01T09:02:18;100097.16;;;26.44;31.82
68107;BME280;54892;47.488;19.026;2023-06-01T09:05:22;100100.31;;;26.46;33.39
68107;BME280;54892;47.488;19.026;2023-06-01T09:08:25;100093.78;;;26.51;32.77
68107;BME280;54892;47.488;19.026;2023-06-01T09:11:30;100087.00;;;26.60;32.60
68107;BME280;54892;47.488;19.026;2023-06-01T09:14:33;100080.59;;;26.26;33.97
68107;BME280;54892;47.488;19.026;2023-06-01T09:17:36;100083.41;;;26.29;32.81
68107;BME280;54892;47.488;19.026;2023-06-01T09:20:40;100090.88;;;26.17;34.47
68107;BME280;54892;47.488;19.026;2023-06-01T09:23:43;100082.50;;;26.22;32.84
68107;BME280;54892;47.488;19.026;2023-06-01T09:26:49;100075.56;;;26.24;33.30
68107;BME280;54892;47.488;19.026;2023-06-01T09:29:53;100074.13;;;26.31;33.67
68107;BME280;54892;47.488;19.026;2023-06-01T09:33:12;100072.97;;;26.32;33.23
68107;BME280;54892;47.488;19.026;2023-06-01T09:36:23;100069.88;;;26.29;32.79
68107;BME280;54892;47.488;19.026;2023-06-01T09:39:33;100074.53;;;26.33;32.72
68107;BME280;54892;47.488;19.026;2023-06-01T09:42:38;100074.97;;;26.35;33.17
68107;BME280;54892;47.488;19.026;2023-06-01T09:45:41;100069.22;;;26.36;34.80
68107;BME280;54892;47.488;19.026;2023-06-01T09:48:45;100064.56;;;26.37;34.75
68107;BME280;54892;47.488;19.026;2023-06-01T09:51:48;100072.38;;;26.42;33.66
68107;BME280;54892;47.488;19.026;2023-06-01T09:54:52;100069.44;;;26.51;34.06
68107;BME280;54892;47.488;19.026;2023-06-01T09:58:20;100078.03;;;26.56;33.59
68107;BME280;54892;47.488;19.026;2023-06-01T10:01:23;100069.53;;;26.58;32.99
68107;BME280;54892;47.488;19.026;2023-06-01T10:04:28;100064.13;;;26.58;32.73
68107;BME280;54892;47.488;19.026;2023-06-01T10:07:32;100066.97;;;26.65;32.79
68107;BME280;54892;47.488;19.026;2023-06-01T10:10:36;100065.00;;;26.66;33.21
68107;BME280;54892;47.488;19.026;2023-06-01T10:13:41;100064.66;;;26.67;33.39
68107;BME280;54892;47.488;19.026;2023-06-01T10:16:45;100058.88;;;26.69;33.17
68107;BME280;54892;47.488;19.026;2023-06-01T10:19:48;100057.31;;;26.68;33.29
68107;BME280;54892;47.488;19.026;2023-06-01T10:22:52;100052.88;;;26.79;32.76
68107;BME280;54892;47.488;19.026;2023-06-01T10:25:55;100054.59;;;26.68;33.56
68107;BME280;54892;47.488;19.026;2023-06-01T10:29:01;100049.19;;;26.68;34.36
68107;BME280;54892;47.488;19.026;2023-06-01T10:32:42;100047.22;;;26.65;33.31
68107;BME280;54892;47.488;19.026;2023-06-01T10:35:55;100045.34;;;26.69;32.94
68107;BME280;54892;47.488;19.026;2023-06-01T10:39:23;100030.28;;;26.71;32.57
68107;BME280;54892;47.488;19.026;2023-06-01T10:42:39;100029.47;;;26.67;32.67
68107;BME280;54892;47.488;19.026;2023-06-01T10:45:44;100021.44;;;26.74;33.34
68107;BME280;54892;47.488;19.026;2023-06-01T10:48:51;100022.25;;;26.75;33.93
68107;BME280;54892;47.488;19.026;2023-06-01T10:52:25;100021.06;;;26.99;33.00
68107;BME280;54892;47.488;19.026;2023-06-01T10:55:28;100011.69;;;26.93;33.07
68107;BME280;54892;47.488;19.026;2023-06-01T10:58:32;100018.44;;;27.07;33.31
68107;BME280;54892;47.488;19.026;2023-06-01T11:01:38;100008.31;;;26.77;32.74
68107;BME280;54892;47.488;19.026;2023-06-01T11:04:42;100001.72;;;26.74;33.26
68107;BME280;54892;47.488;19.026;2023-06-01T11:07:46;100003.19;;;26.95;34.52
68107;BME280;54892;47.488;19.026;2023-06-01T11:10:56;100006.31;;;26.97;33.92
68107;BME280;54892;47.488;19.026;2023-06-01T11:14:09;100000.44;;;27.22;32.98
68107;BME280;54892;47.488;19.026;2023-06-01T11:17:27;99999.75;;;27.28;32.28
68107;BME280;54892;47.488;19.026;2023-06-01T11:20:38;99991.66;;;27.32;32.16
68107;BME280;54892;47.488;19.026;2023-06-01T11:23:42;99991.69;;;27.35;31.33
68107;BME280;54892;47.488;19.026;2023-06-01T11:26:46;99988.09;;;27.28;32.56
68107;BME280;54892;47.488;19.026;2023-06-01T11:29:50;99983.47;;;27.28;32.76
68107;BME280;54892;47.488;19.026;2023-06-01T11:32:56;99975.72;;;27.27;32.22
68107;BME280;54892;47.488;19.026;2023-06-01T11:36:00;99971.44;;;27.26;32.36
68107;BME280;54892;47.488;19.026;2023-06-01T11:39:16;99977.63;;;27.23;33.03
68107;BME280;54892;47.488;19.026;2023-06-01T11:42:22;99968.63;;;27.15;32.32
68107;BME280;54892;47.488;19.026;2023-06-01T11:45:25;99970.09;;;27.09;32.64
68107;BME280;54892;47.488;19.026;2023-06-01T11:48:31;99955.37;;;26.79;33.28
68107;BME280;54892;47.488;19.026;2023-06-01T11:51:37;99953.22;;;26.62;33.40
68107;BME280;54892;47.488;19.026;2023-06-01T11:54:43;99957.59;;;26.73;32.75
68107;BME280;54892;47.488;19.026;2023-06-01T11:57:46;99955.50;;;26.86;33.03
68107;BME280;54892;47.488;19.026;2023-06-01T12:00:50;99951.50;;;27.07;32.69
68107;BME280;54892;47.488;19.026;2023-06-01T12:03:54;99947.37;;;27.17;32.34
68107;BME280;54892;47.488;19.026;2023-06-01T12:07:05;99943.16;;;27.23;31.32
68107;BME280;54892;47.488;19.026;2023-06-01T12:10:10;99935.16;;;27.34;31.78
68107;BME280;54892;47.488;19.026;2023-06-01T12:13:16;99927.59;;;27.50;32.61
68107;BME280;54892;47.488;19.026;2023-06-01T12:16:20;99936.28;;;27.29;32.44
68107;BME280;54892;47.488;19.026;2023-06-01T12:19:25;99934.91;;;27.12;32.65
68107;BME280;54892;47.488;19.026;2023-06-01T12:22:30;99929.56;;;27.19;33.51
68107;BME280;54892;47.488;19.026;2023-06-01T12:25:36;99917.31;;;27.29;33.63
68107;BME280;54892;47.488;19.026;2023-06-01T12:28:47;99917.94;;;27.19;34.28
68107;BME280;54892;47.488;19.026;2023-06-01T12:31:54;99918.81;;;27.27;32.49
68107;BME280;54892;47.488;19.026;2023-06-01T12:35:05;99898.44;;;27.40;32.63
68107;BME280;54892;47.488;19.026;2023-06-01T12:38:10;99903.22;;;27.54;32.07
68107;BME280;54892;47.488;19.026;2023-06-01T12:41:13;99895.44;;;27.49;31.46
68107;BME280;54892;47.488;19.026;2023-06-01T12:44:19;99897.38;;;27.48;31.48
68107;BME280;54892;47.488;19.026;2023-06-01T12:47:23;99891.91;;;27.45;31.63
68107;BME280;54892;47.488;19.026;2023-06-01T12:50:29;99880.63;;;27.39;31.33
68107;BME280;54892;47.488;19.026;2023-06-01T12:53:33;99881.78;;;27.42;32.12
68107;BME280;54892;47.488;19.026;2023-06-01T12:56:36;99885.41;;;27.53;31.92
68107;BME280;54892;47.488;19.026;2023-06-01T12:59:40;99876.16;;;27.58;31.90
68107;BME280;54892;47.488;19.026;2023-06-01T13:02:44;99871.13;;;27.60;31.10
68107;BME280;54892;47.488;19.026;2023-06-01T13:05:51;99871.13;;;27.60;31.32
68107;BME280;54892;47.488;19.026;2023-06-01T13:08:54;99863.78;;;27.60;31.16
68107;BME280;54892;47.488;19.026;2023-06-01T13:11:58;99863.00;;;27.60;31.15
68107;BME280;54892;47.488;19.026;2023-06-01T13:15:01;99857.41;;;27.42;31.17
68107;BME280;54892;47.488;19.026;2023-06-01T13:18:04;99859.09;;;27.16;31.29
68107;BME280;54892;47.488;19.026;2023-06-01T13:21:08;99858.25;;;27.08;31.81
68107;BME280;54892;47.488;19.026;2023-06-01T13:24:12;99851.75;;;27.16;31.79
68107;BME280;54892;47.488;19.026;2023-06-01T13:27:16;99853.06;;;27.33;31.91
68107;BME280;54892;47.488;19.026;2023-06-01T13:30:19;99848.72;;;27.22;31.88
68107;BME280;54892;47.488;19.026;2023-06-01T13:33:22;99839.84;;;27.25;31.51
68107;BME280;54892;47.488;19.026;2023-06-01T13:36:26;99840.63;;;27.29;31.30
68107;BME280;54892;47.488;19.026;2023-06-01T13:39:30;99835.16;;;27.22;31.23
68107;BME280;54892;47.488;19.026;2023-06-01T13:42:34;99836.34;;;27.24;31.74
68107;BME280;54892;47.488;19.026;2023-06-01T13:45:38;99824.44;;;27.32;31.69
68107;BME280;54892;47.488;19.026;2023-06-01T13:48:41;99825.22;;;27.36;31.83
68107;BME280;54892;47.488;19.026;2023-06-01T13:51:46;99818.31;;;27.43;31.06
68107;BME280;54892;47.488;19.026;2023-06-01T13:54:49;99816.81;;;27.49;31.87
68107;BME280;54892;47.488;19.026;2023-06-01T13:57:52;99807.53;;;27.46;31.12
68107;BME280;54892;47.488;19.026;2023-06-01T14:00:56;99801.66;;;27.44;30.98
68107;BME280;54892;47.488;19.026;2023-06-01T14:03:59;99800.25;;;27.58;31.95
68107;BME280;54892;47.488;19.026;2023-06-01T14:07:04;99797.09;;;27.52;31.22
68107;BME280;54892;47.488;19.026;2023-06-01T14:10:08;99794.69;;;27.43;31.04
68107;BME280;54892;47.488;19.026;2023-06-01T14:13:13;99792.53;;;27.15;31.82
68107;BME280;54892;47.488;19.026;2023-06-01T14:16:16;99782.72;;;26.99;31.88
68107;BME280;54892;47.488;19.026;2023-06-01T14:19:19;99776.16;;;27.04;32.29
68107;BME280;54892;47.488;19.026;2023-06-01T14:22:23;99777.44;;;27.17;32.85
68107;BME280;54892;47.488;19.026;2023-06-01T14:25:27;99765.13;;;27.24;32.23
68107;BME280;54892;47.488;19.026;2023-06-01T14:28:31;99765.50;;;27.26;33.60
68107;BME280;54892;47.488;19.026;2023-06-01T14:31:35;99777.47;;;27.21;31.85
68107;BME280;54892;47.488;19.026;2023-06-01T14:34:38;99773.25;;;27.24;32.30
68107;BME280;54892;47.488;19.026;2023-06-01T14:37:43;99760.44;;;27.20;32.28
68107;BME280;54892;47.488;19.026;2023-06-01T14:40:49;99768.16;;;27.18;32.00
68107;BME280;54892;47.488;19.026;2023-06-01T14:43:53;99767.00;;;27.16;32.35
68107;BME280;54892;47.488;19.026;2023-06-01T14:46:57;99761.53;;;27.12;32.40
68107;BME280;54892;47.488;19.026;2023-06-01T14:50:01;99763.09;;;27.13;32.77
68107;BME280;54892;47.488;19.026;2023-06-01T14:53:06;99756.16;;;27.16;32.98
68107;BME280;54892;47.488;19.026;2023-06-01T14:56:09;99754.63;;;27.18;32.95
68107;BME280;54892;47.488;19.026;2023-06-01T14:59:13;99749.19;;;27.18;32.59
68107;BME280;54892;47.488;19.026;2023-06-01T15:02:16;99743.34;;;27.13;32.21
68107;BME280;54892;47.488;19.026;2023-06-01T15:05:20;99737.94;;;27.13;33.15
68107;BME280;54892;47.488;19.026;2023-06-01T15:08:25;99745.22;;;27.05;33.11
68107;BME280;54892;47.488;19.026;2023-06-01T15:11:31;99735.53;;;27.04;33.08
68107;BME280;54892;47.488;19.026;2023-06-01T15:14:34;99734.72;;;27.00;33.13
68107;BME280;54892;47.488;19.026;2023-06-01T15:17:37;99727.75;;;26.99;33.12
68107;BME280;54892;47.488;19.026;2023-06-01T15:20:41;99731.16;;;26.88;33.19
68107;BME280;54892;47.488;19.026;2023-06-01T15:23:46;99715.22;;;26.80;33.75
68107;BME280;54892;47.488;19.026;2023-06-01T15:26:50;99721.84;;;26.86;33.94
68107;BME280;54892;47.488;19.026;2023-06-01T15:29:53;99723.00;;;26.85;33.51
68107;BME280;54892;47.488;19.026;2023-06-01T15:32:56;99717.13;;;26.79;33.87
68107;BME280;54892;47.488;19.026;2023-06-01T15:36:08;99717.13;;;26.79;34.41
68107;BME280;54892;47.488;19.026;2023-06-01T15:39:12;99716.38;;;26.82;34.24
68107;BME280;54892;47.488;19.026;2023-06-01T15:42:16;99712.91;;;26.82;35.39
68107;BME280;54892;47.488;19.026;2023-06-01T15:45:20;99708.53;;;26.73;35.92
68107;BME280;54892;47.488;19.026;2023-06-01T15:48:23;99709.25;;;26.67;36.11
68107;BME280;54892;47.488;19.026;2023-06-01T15:51:26;99704.25;;;26.69;36.16
68107;BME280;54892;47.488;19.026;2023-06-01T15:54:32;99701.47;;;26.62;36.20
68107;BME280;54892;47.488;19.026;2023-06-01T15:57:36;99697.88;;;26.50;36.53